Terminal Aerodrome Forecast
Issued by NWS

Home | Current Version | Previous Version | Text Only | Print | Product List | Glossary On
Versions: 1 2 3 4 5 6 7 8 9 10 11 12 13 14 15 16 17 18 19 20 21
000
FTUS43 KBIS 290600 AAB
TAFDIK
TAF AMD
KDIK 290638Z 2907/3006 04009KT P6SM BKN008 OVC090
      TEMPO 2907/2908 SCT008 OVC080
     FM290800 02006KT P6SM FEW040 OVC090
      TEMPO 2910/2912 SCT090
     FM291400 34007KT P6SM FEW009 FEW250
     FM291800 32010KT P6SM FEW250
     FM300100 30010KT P6SM FEW150 FEW200=

USA.gov is the U.S. government's official web portal to all federal, state and local government web resources and services.